エカテリンブルク の空港の天気 - METARとTAF

コルツォヴォ空港 ( USSS / SVX ) - ロシア エカテリンブルク
飛行場実況気象(Metar)
観測時間09/22 02:00 YEKT (09/21 21:00 UTC)
風向・風速北 4m/s
視程10km以上
天気現象
全天の8割程度の雲 雲底高度 1370m
気温6℃
湿度87%
気圧1027hPa
METARUSSS 212100Z 01004MPS 9999 BKN045CB 06/04 Q1027 R08L/150060 NOSIG RMK QFE750/1000
過去の天気等 Google飛行場航空写真 Wunderground天気予報

過去48時間のMETAR

飛行場予報(TAF)
発表時間: 9/22 00:55 YEKT (9/21 19:55 UTC)
予報対象時間: 22日2時 YEKT ~ 23日2時 YEKT
風向・風速北 4m/s
視程10km以上
全天の4割程度の雲 雲底高度 340m
全天の4割程度の積乱雲 雲底高度 610m
22日3時 YEKT ~ 22日4時 YEKT に徐々に
視程3,100m
天気現象もや
全天の8割程度の雲 雲底高度 210m
22日10時 YEKT ~ 22日11時 YEKT に徐々に
視程10km以上
天気現象運行に影響にある天気現象が終了
TAF USSS 211955Z 2121/2221 01004MPS 9999 SCT011 SCT020CB
BECMG 2122/2123 3100 BR BKN007
BECMG 2205/2206 9999 NSW